createdAt,value
2019-05-23T00:01:11.723Z,23.20
2019-05-23T00:03:48.260Z,23.00
2019-05-23T00:06:26.851Z,24.50
2019-05-23T00:08:57.478Z,21.50
2019-05-23T00:11:53.889Z,21.37
2019-05-23T00:14:43.315Z,26.20
2019-05-23T00:17:26.745Z,24.43
2019-05-23T00:19:57.098Z,21.33
2019-05-23T00:22:27.397Z,21.27
2019-05-23T00:25:04.259Z,20.33
2019-05-23T00:27:36.850Z,22.03
2019-05-23T00:30:15.987Z,24.77
2019-05-23T00:32:47.383Z,25.00
2019-05-23T00:35:25.838Z,23.20
2019-05-23T00:37:55.630Z,23.12
2019-05-23T00:40:33.243Z,22.93
2019-05-23T00:43:03.578Z,24.98
2019-05-23T00:45:39.624Z,26.40
2019-05-23T00:48:15.659Z,24.10
2019-05-23T00:50:52.350Z,22.02
2019-05-23T00:53:22.258Z,25.27
2019-05-23T00:55:52.097Z,24.18
2019-05-23T00:58:27.822Z,24.25
2019-05-23T01:00:59.601Z,27.97
2019-05-23T01:03:38.216Z,23.83
2019-05-23T01:06:07.629Z,26.80
2019-05-23T01:08:45.069Z,23.42
2019-05-23T01:11:16.281Z,22.93
2019-05-23T01:13:52.689Z,23.70
2019-05-23T01:16:29.770Z,22.25
2019-05-23T01:19:06.294Z,22.77
2019-05-23T01:22:06.652Z,23.33
2019-05-23T01:24:44.651Z,22.98
2019-05-23T01:27:14.866Z,25.43
2019-05-23T01:29:52.174Z,28.05
2019-05-23T01:32:45.046Z,25.70
2019-05-23T01:35:19.202Z,23.10
2019-05-23T01:37:55.240Z,24.95
2019-05-23T01:40:24.655Z,33.50
2019-05-23T01:43:00.226Z,26.12
2019-05-23T01:45:29.737Z,23.32
2019-05-23T01:48:12.343Z,25.12
2019-05-23T01:50:41.663Z,24.98
2019-05-23T01:53:17.938Z,24.50
2019-05-23T01:55:47.653Z,24.07
2019-05-23T01:58:16.975Z,24.82
2019-05-23T02:00:53.524Z,25.27
2019-05-23T02:03:23.111Z,25.88
2019-05-23T02:05:59.532Z,26.33
2019-05-23T02:08:29.214Z,31.57
2019-05-23T02:11:05.523Z,25.57
2019-05-23T02:13:35.123Z,23.77
2019-05-23T02:16:18.892Z,29.48
2019-05-23T02:18:49.080Z,24.37
2019-05-23T02:21:26.024Z,25.40
2019-05-23T02:23:55.787Z,26.02
2019-05-23T02:26:32.212Z,26.07
2019-05-23T02:29:03.384Z,31.77
2019-05-23T02:31:39.241Z,27.67
2019-05-23T02:34:08.537Z,24.98
2019-05-23T02:36:45.003Z,26.80
2019-05-23T02:39:40.716Z,26.45
2019-05-23T02:42:31.722Z,27.35
2019-05-23T02:45:10.913Z,23.98
2019-05-23T02:47:52.118Z,27.45
2019-05-23T02:50:34.951Z,25.75
2019-05-23T02:53:12.158Z,28.50
2019-05-23T02:55:42.309Z,26.37
2019-05-23T02:58:34.956Z,28.90
2019-05-23T03:01:48.926Z,29.50
2019-05-23T03:04:24.950Z,27.22
2019-05-23T03:07:02.968Z,28.55
2019-05-23T03:09:35.865Z,31.50
2019-05-23T03:12:14.180Z,27.93
2019-05-23T03:14:51.367Z,30.52
2019-05-23T03:17:35.195Z,26.55
2019-05-23T03:20:08.038Z,26.75
2019-05-23T03:22:55.202Z,27.58
2019-05-23T03:26:10.511Z,25.37
2019-05-23T03:28:48.834Z,25.68
2019-05-23T03:31:41.860Z,30.02
2019-05-23T03:34:19.613Z,29.05
2019-05-23T03:36:48.883Z,29.52
2019-05-23T03:39:24.999Z,25.88
2019-05-23T03:41:54.209Z,27.45
2019-05-23T03:44:31.759Z,27.95
2019-05-23T03:47:09.674Z,28.95
2019-05-23T03:49:46.071Z,26.82
2019-05-23T03:52:16.798Z,31.80
2019-05-23T03:54:49.107Z,28.95
2019-05-23T03:57:27.846Z,28.45
2019-05-23T04:00:05.438Z,26.55
2019-05-23T04:02:36.419Z,30.35
2019-05-23T04:05:14.144Z,29.45
2019-05-23T04:07:43.551Z,28.95
2019-05-23T04:10:20.747Z,28.02
2019-05-23T04:12:50.127Z,31.27
2019-05-23T04:15:27.169Z,30.25
2019-05-23T04:18:03.402Z,29.07
2019-05-23T04:20:39.579Z,27.15
2019-05-23T04:23:09.513Z,27.15
2019-05-23T04:25:45.557Z,27.30
2019-05-23T04:28:14.699Z,26.48
2019-05-23T04:30:44.493Z,29.82
2019-05-23T04:33:20.770Z,28.27
2019-05-23T04:35:49.905Z,30.17
2019-05-23T04:38:25.674Z,25.92
2019-05-23T04:40:54.940Z,24.98
2019-05-23T04:43:34.295Z,24.50
2019-05-23T04:46:10.526Z,28.57
2019-05-23T04:48:46.681Z,24.30
2019-05-23T04:51:16.050Z,27.13
2019-05-23T04:53:52.381Z,27.90
2019-05-23T04:56:21.667Z,22.83
2019-05-23T04:58:52.386Z,24.50
2019-05-23T05:01:29.554Z,24.83
2019-05-23T05:03:59.069Z,25.67
2019-05-23T05:06:35.452Z,23.37
2019-05-23T05:09:08.632Z,22.77
2019-05-23T05:11:44.101Z,23.30
2019-05-23T05:14:13.881Z,23.50
2019-05-23T05:16:52.024Z,23.87
2019-05-23T05:19:29.585Z,27.93
2019-05-23T05:22:05.079Z,22.63
2019-05-23T05:24:40.126Z,23.03
2019-05-23T05:27:14.314Z,25.33
2019-05-23T05:29:46.358Z,23.50
2019-05-23T05:32:23.990Z,27.17
2019-05-23T05:34:55.523Z,23.77
2019-05-23T05:37:31.974Z,21.33
2019-05-23T05:40:01.708Z,24.40
2019-05-23T05:42:37.387Z,24.73
2019-05-23T05:48:45.160Z,21.10
2019-05-23T05:51:14.563Z,20.53
2019-05-23T05:53:54.549Z,24.13
2019-05-23T05:56:28.204Z,20.80
2019-05-23T05:59:04.258Z,25.90
2019-05-23T06:01:34.692Z,21.10
2019-05-23T06:04:11.457Z,20.50
2019-05-23T06:06:50.304Z,24.13
2019-05-23T06:09:30.710Z,19.50
2019-05-23T06:12:00.134Z,21.60
2019-05-23T06:14:36.120Z,19.23
2019-05-23T06:17:15.221Z,19.97
2019-05-23T06:19:56.918Z,21.20
2019-05-23T06:22:28.310Z,19.90
2019-05-23T06:25:04.629Z,22.60
2019-05-23T06:27:35.495Z,21.23
2019-05-23T06:30:13.762Z,20.27
2019-05-23T06:32:43.156Z,20.17
2019-05-23T06:35:13.630Z,23.30
2019-05-23T06:37:49.931Z,20.87
2019-05-23T06:40:20.033Z,21.43
2019-05-23T06:42:55.522Z,20.97
2019-05-23T06:45:25.340Z,20.47
2019-05-23T06:48:07.741Z,20.43
2019-05-23T06:50:37.006Z,22.00
2019-05-23T06:53:13.998Z,21.10
2019-05-23T06:55:43.187Z,20.63
2019-05-23T06:58:49.182Z,18.90
2019-05-23T07:01:19.039Z,18.03
2019-05-23T07:07:58.372Z,18.03
2019-05-23T07:28:53.374Z,22.03
2019-05-23T07:37:52.734Z,28.63
2019-05-23T07:43:04.132Z,18.37
2019-05-23T07:55:55.249Z,23.63
2019-05-23T07:58:31.768Z,21.30
2019-05-23T08:01:10.112Z,21.07
2019-05-23T08:03:40.231Z,21.37
2019-05-23T08:06:10.125Z,19.07
2019-05-23T08:08:46.482Z,21.47
2019-05-23T08:11:15.694Z,23.13
2019-05-23T08:13:52.011Z,23.63
2019-05-23T08:16:21.307Z,25.83
2019-05-23T08:18:50.424Z,24.17
2019-05-23T08:21:26.944Z,21.80
2019-05-23T08:23:56.176Z,21.57
2019-05-23T08:26:33.572Z,20.90
2019-05-23T08:29:24.775Z,20.40
2019-05-23T08:31:41.472Z,23.80
2019-05-23T08:34:11.194Z,20.77
2019-05-23T08:36:40.337Z,21.80
2019-05-23T08:39:16.955Z,24.97
2019-05-23T08:41:46.204Z,28.60
2019-05-23T08:44:23.114Z,23.40
2019-05-23T08:46:58.602Z,24.97
2019-05-23T08:49:34.919Z,26.80
2019-05-23T08:52:04.257Z,25.73
2019-05-23T08:54:48.163Z,24.00
2019-05-23T08:57:17.643Z,23.30
2019-05-23T08:59:53.978Z,30.30
2019-05-23T09:02:23.494Z,24.70
2019-05-23T09:05:04.160Z,25.93
2019-05-23T09:07:30.049Z,30.60
2019-05-23T09:09:59.505Z,35.10
2019-05-23T09:12:35.339Z,26.87
2019-05-23T09:15:09.593Z,25.70
2019-05-23T09:17:53.057Z,22.73
2019-05-23T09:20:15.279Z,24.80
2019-05-23T09:22:50.924Z,23.73
2019-05-23T09:25:20.662Z,25.20
2019-05-23T09:27:58.041Z,22.73
2019-05-23T09:30:27.642Z,22.87
2019-05-23T09:32:56.859Z,22.93
2019-05-23T09:35:33.394Z,21.00
2019-05-23T09:38:02.551Z,21.13
2019-05-23T09:40:38.782Z,20.40
2019-05-23T09:43:08.380Z,23.00
2019-05-23T09:45:44.681Z,19.20
2019-05-23T09:48:20.652Z,21.63
2019-05-23T09:50:56.783Z,19.20
2019-05-23T09:53:26.380Z,23.47
2019-05-23T09:56:09.243Z,21.13
2019-05-23T09:58:38.834Z,20.37
2019-05-23T10:01:08.932Z,20.20
2019-05-23T10:03:44.986Z,23.30
2019-05-23T10:06:14.142Z,19.80
2019-05-23T10:09:05.807Z,18.70
2019-05-23T10:11:42.563Z,21.13
2019-05-23T10:14:22.853Z,19.03
2019-05-23T10:16:52.138Z,18.67
2019-05-23T10:19:21.311Z,16.03
2019-05-23T10:21:57.127Z,17.53
2019-05-23T10:24:26.469Z,23.30
2019-05-23T10:27:01.747Z,19.03
2019-05-23T10:29:31.286Z,18.50
2019-05-23T10:32:06.920Z,18.13
2019-05-23T10:34:36.358Z,18.97
2019-05-23T10:37:07.942Z,19.83
2019-05-23T10:39:45.306Z,19.43
2019-05-23T10:42:21.208Z,19.90
2019-05-23T10:44:50.336Z,16.20
2019-05-23T10:47:26.714Z,22.17
2019-05-23T10:50:07.736Z,19.87
2019-05-23T10:52:41.102Z,17.23
2019-05-23T10:55:17.014Z,17.77
2019-05-23T10:57:59.462Z,17.53
2019-05-23T11:00:30.222Z,18.70
2019-05-23T11:02:59.950Z,18.63
2019-05-23T11:05:36.716Z,17.17
2019-05-23T11:08:06.606Z,16.97
2019-05-23T11:10:43.419Z,17.10
2019-05-23T11:13:12.583Z,15.57
2019-05-23T11:15:42.245Z,17.60
2019-05-23T11:18:17.964Z,16.30
2019-05-23T11:20:47.944Z,16.40
2019-05-23T11:23:39.441Z,16.57
2019-05-23T11:26:09.362Z,18.23
2019-05-23T11:28:38.907Z,17.43
2019-05-23T11:31:18.891Z,17.13
2019-05-23T11:33:48.407Z,16.77
2019-05-23T11:36:34.905Z,16.07
2019-05-23T11:38:55.237Z,14.90
2019-05-23T11:41:24.905Z,20.90
2019-05-23T11:44:00.737Z,18.27
2019-05-23T11:46:33.498Z,17.10
2019-05-23T11:49:09.995Z,14.90
2019-05-23T11:51:46.520Z,17.53
2019-05-23T11:54:22.798Z,16.93
2019-05-23T11:57:01.084Z,17.03
2019-05-23T11:59:43.917Z,14.13
2019-05-23T12:02:38.387Z,15.53
2019-05-23T12:05:19.141Z,12.10
2019-05-23T12:07:48.502Z,14.77
2019-05-23T12:10:25.344Z,12.30
2019-05-23T12:12:54.618Z,9.53
2019-05-23T12:15:34.758Z,12.53
2019-05-23T12:18:05.700Z,16.70
2019-05-23T12:20:34.955Z,10.27
2019-05-23T12:23:29.258Z,14.43
2019-05-23T12:26:05.932Z,11.53
2019-05-23T12:28:41.482Z,11.10
2019-05-23T12:31:11.032Z,11.77
2019-05-23T12:33:40.181Z,9.70
2019-05-23T12:36:18.208Z,8.80
2019-05-23T12:38:47.427Z,10.13
2019-05-23T12:41:23.600Z,11.13
2019-05-23T12:43:52.912Z,10.40
2019-05-23T12:46:22.265Z,11.23
2019-05-23T12:49:19.674Z,10.77
2019-05-23T12:51:56.568Z,9.00
2019-05-23T12:54:32.678Z,7.93
2019-05-23T12:57:02.050Z,7.70
2019-05-23T12:59:31.387Z,11.67
2019-05-23T13:02:07.950Z,11.70
2019-05-23T13:04:37.201Z,6.37
2019-05-23T13:07:13.670Z,7.60
2019-05-23T13:09:43.374Z,7.67
2019-05-23T13:12:16.146Z,5.70
2019-05-23T13:14:53.554Z,6.30
2019-05-23T13:17:21.224Z,6.93
2019-05-23T13:19:50.478Z,7.20
2019-05-23T13:22:26.182Z,6.00
2019-05-23T13:25:02.345Z,5.63
2019-05-23T13:27:44.649Z,7.90
2019-05-23T13:30:15.508Z,6.37
2019-05-23T13:32:45.470Z,5.40
2019-05-23T13:35:21.147Z,9.67
2019-05-23T13:37:54.120Z,9.97
2019-05-23T13:40:27.998Z,8.27
2019-05-23T13:42:57.594Z,5.40
2019-05-23T13:45:27.379Z,6.50
2019-05-23T13:48:02.987Z,5.30
2019-05-23T13:50:38.846Z,4.83
2019-05-23T13:53:14.670Z,4.23
2019-05-23T13:55:43.809Z,4.80
2019-05-23T13:58:13.385Z,5.73
2019-05-23T14:00:50.635Z,6.43
2019-05-23T14:03:20.193Z,6.17
2019-05-23T14:05:55.832Z,6.33
2019-05-23T14:08:25.458Z,5.13
2019-05-23T14:10:54.858Z,7.30
2019-05-23T14:13:30.559Z,5.30
2019-05-23T14:15:59.848Z,4.90
2019-05-23T14:18:36.268Z,4.60
2019-05-23T14:21:06.411Z,5.20
2019-05-23T14:23:35.659Z,5.20
2019-05-23T14:26:13.064Z,5.57
2019-05-23T14:28:42.578Z,5.60
2019-05-23T14:31:22.349Z,5.23
2019-05-23T14:34:06.889Z,5.10
2019-05-23T14:37:10.704Z,6.50
2019-05-23T14:39:44.017Z,8.37
2019-05-23T14:42:37.844Z,8.60
2019-05-23T14:45:14.309Z,5.07
2019-05-23T14:48:11.918Z,4.63
2019-05-23T14:51:00.246Z,6.33
2019-05-23T14:53:44.188Z,7.07
2019-05-23T14:56:17.067Z,4.63
2019-05-23T14:58:53.458Z,4.97
2019-05-23T15:01:24.429Z,4.80
2019-05-23T15:04:00.678Z,7.90
2019-05-23T15:06:29.919Z,3.70
2019-05-23T15:08:59.297Z,6.60
2019-05-23T15:11:35.006Z,7.87
2019-05-23T15:14:04.890Z,4.30
2019-05-23T15:16:41.668Z,6.13
2019-05-23T15:19:10.861Z,5.93
2019-05-23T15:21:40.026Z,5.37
2019-05-23T15:24:16.196Z,12.93
2019-05-23T15:26:52.142Z,4.43
2019-05-23T15:29:29.398Z,4.90
2019-05-23T15:32:02.880Z,4.17
2019-05-23T15:34:30.140Z,3.80
2019-05-23T15:37:06.396Z,5.03
2019-05-23T15:39:35.727Z,7.63
2019-05-23T15:42:04.937Z,6.83
2019-05-23T15:44:41.239Z,6.80
2019-05-23T15:47:10.490Z,5.10
2019-05-23T15:49:41.512Z,6.77
2019-05-23T15:52:26.172Z,5.07
2019-05-23T15:55:20.062Z,8.10
2019-05-23T15:58:22.255Z,7.83
2019-05-23T16:01:12.709Z,6.83
2019-05-23T16:03:57.332Z,6.17
2019-05-23T16:06:28.542Z,6.10
2019-05-23T16:09:05.110Z,16.90
2019-05-23T16:11:34.313Z,16.03
2019-05-23T16:14:10.594Z,8.07
2019-05-23T16:16:40.384Z,8.97
2019-05-23T16:19:09.510Z,8.60
2019-05-23T16:21:46.649Z,5.87
2019-05-23T16:24:15.861Z,7.80
2019-05-23T16:26:59.518Z,4.90
2019-05-23T16:29:35.976Z,7.60
2019-05-23T16:32:12.214Z,4.73
2019-05-23T16:34:41.533Z,4.27
2019-05-23T16:37:11.373Z,10.60
2019-05-23T16:39:49.432Z,5.10
2019-05-23T16:42:19.459Z,4.97
2019-05-23T16:44:48.680Z,7.30
2019-05-23T16:47:24.335Z,6.00
2019-05-23T16:49:53.644Z,7.97
2019-05-23T16:52:29.637Z,7.07
2019-05-23T16:55:07.302Z,12.53
2019-05-23T16:57:57.478Z,7.43
2019-05-23T17:00:44.772Z,5.97
2019-05-23T17:03:33.065Z,8.23
2019-05-23T17:06:24.261Z,9.93
2019-05-23T17:09:32.268Z,10.87
2019-05-23T17:12:36.146Z,20.03
2019-05-23T17:15:25.022Z,51.50
2019-05-23T17:18:22.965Z,11.87
2019-05-23T17:21:10.007Z,8.83
2019-05-23T17:24:04.380Z,7.60
2019-05-23T17:27:08.000Z,9.57
2019-05-23T17:29:47.907Z,7.27
2019-05-23T17:32:26.473Z,8.97
2019-05-23T17:34:59.005Z,14.57
2019-05-23T17:37:34.708Z,8.23
2019-05-23T17:40:04.738Z,6.93
2019-05-23T17:42:33.926Z,8.13
2019-05-23T17:45:13.458Z,4.40
2019-05-23T17:47:40.488Z,5.97
2019-05-23T17:50:15.917Z,6.43
2019-05-23T17:52:47.505Z,4.13
2019-05-23T17:55:30.202Z,3.67
2019-05-23T17:57:59.453Z,7.40
2019-05-23T18:00:44.216Z,4.67
2019-05-23T18:03:16.025Z,6.57
2019-05-23T18:05:46.836Z,5.33
2019-05-23T18:08:24.053Z,10.43
2019-05-23T18:10:53.584Z,13.20
2019-05-23T18:13:29.360Z,9.10
2019-05-23T18:15:58.631Z,6.33
2019-05-23T18:18:28.891Z,5.07
2019-05-23T18:21:06.965Z,14.33
2019-05-23T18:23:36.488Z,9.27
2019-05-23T18:26:06.773Z,11.10
2019-05-23T18:28:43.852Z,4.60
2019-05-23T18:31:26.010Z,4.70
2019-05-23T18:34:21.627Z,6.17
2019-05-23T18:36:52.294Z,15.97
2019-05-23T18:39:22.882Z,10.57
2019-05-23T18:42:01.336Z,7.40
2019-05-23T18:44:30.523Z,9.53
2019-05-23T18:47:08.583Z,10.60
2019-05-23T18:49:37.973Z,7.17
2019-05-23T18:52:14.329Z,7.67
2019-05-23T18:54:43.531Z,30.70
2019-05-23T18:57:26.281Z,5.73
2019-05-23T18:59:55.827Z,6.20
2019-05-23T19:02:25.872Z,4.83
2019-05-23T19:05:03.211Z,6.10
2019-05-23T19:07:33.051Z,13.10
2019-05-23T19:10:10.162Z,10.63
2019-05-23T19:12:39.958Z,4.73
2019-05-23T19:15:09.332Z,5.00
2019-05-23T19:17:46.064Z,11.37
2019-05-23T19:20:15.409Z,7.13
2019-05-23T19:22:52.011Z,13.63
2019-05-23T19:25:21.239Z,7.87
2019-05-23T19:27:50.365Z,3.93
2019-05-23T19:30:27.105Z,9.03
2019-05-23T19:32:56.705Z,7.97
2019-05-23T19:35:51.855Z,6.43
2019-05-23T19:38:25.489Z,6.50
2019-05-23T19:41:02.181Z,11.87
2019-05-23T19:43:31.569Z,8.23
2019-05-23T19:46:01.428Z,8.90
2019-05-23T19:48:39.975Z,9.57
2019-05-23T19:51:10.593Z,6.40
2019-05-23T19:53:40.829Z,10.27
2019-05-23T19:56:23.804Z,7.07
2019-05-23T19:58:53.472Z,12.63
2019-05-23T20:01:32.154Z,13.40
2019-05-23T20:04:01.804Z,11.80
2019-05-23T20:06:38.305Z,19.00
2019-05-23T20:09:10.997Z,21.67
2019-05-23T20:11:54.252Z,23.20
2019-05-23T20:14:18.074Z,18.23
2019-05-23T20:16:53.699Z,23.33
2019-05-23T20:19:23.269Z,18.17
2019-05-23T20:21:54.605Z,28.73
2019-05-23T20:24:30.587Z,48.60
2019-05-23T20:27:18.824Z,63.37
2019-05-23T20:29:54.451Z,17.37
2019-05-23T20:32:30.823Z,14.80
2019-05-23T20:35:07.376Z,11.67
2019-05-23T20:37:37.486Z,5.00
2019-05-23T20:40:07.395Z,6.20
2019-05-23T20:42:43.197Z,9.57
2019-05-23T20:45:12.772Z,14.23
2019-05-23T20:47:49.106Z,9.17
2019-05-23T20:50:18.365Z,6.97
2019-05-23T20:53:02.142Z,5.63
2019-05-23T20:55:33.568Z,6.93
2019-05-23T20:58:02.857Z,10.87
2019-05-23T21:01:16.845Z,11.53
2019-05-23T21:03:47.180Z,10.20
2019-05-23T21:06:16.349Z,7.73
2019-05-23T21:08:52.918Z,6.67
2019-05-23T21:11:22.422Z,5.47
2019-05-23T21:13:51.616Z,6.23
2019-05-23T21:16:27.120Z,6.87
2019-05-23T21:18:56.339Z,8.27
2019-05-23T21:21:25.466Z,4.90
2019-05-23T21:24:00.948Z,6.60
2019-05-23T21:26:49.351Z,5.47
2019-05-23T21:29:26.013Z,8.20
2019-05-23T21:32:02.242Z,10.33
2019-05-23T21:34:37.988Z,3.97
2019-05-23T21:37:07.244Z,6.73
2019-05-23T21:39:36.471Z,4.47
2019-05-23T21:42:46.730Z,5.00
2019-05-23T21:45:03.015Z,6.70
2019-05-23T21:47:32.260Z,6.97
2019-05-23T21:50:08.401Z,4.63
2019-05-23T21:52:44.524Z,7.17
2019-05-23T21:55:23.796Z,7.50
2019-05-23T21:57:53.006Z,8.47
2019-05-23T22:00:47.831Z,6.03
2019-05-23T22:03:17.667Z,5.93
2019-05-23T22:05:53.346Z,4.07
2019-05-23T22:08:22.516Z,4.43
2019-05-23T22:10:58.182Z,6.07
2019-05-23T22:13:27.363Z,7.10
2019-05-23T22:15:58.664Z,5.70
2019-05-23T22:18:34.896Z,4.70
2019-05-23T22:21:04.047Z,4.63
2019-05-23T22:23:40.302Z,4.00
2019-05-23T22:26:09.478Z,3.73
2019-05-23T22:28:38.689Z,4.50
2019-05-23T22:31:15.884Z,9.33
2019-05-23T22:33:58.237Z,5.00
2019-05-23T22:36:33.663Z,10.10
2019-05-23T22:39:02.982Z,4.90
2019-05-23T22:41:32.971Z,5.43
2019-05-23T22:44:09.751Z,6.93
2019-05-23T22:46:39.070Z,5.73
2019-05-23T22:49:14.909Z,5.43
2019-05-23T22:51:50.185Z,6.17
2019-05-23T22:54:26.329Z,6.23
2019-05-23T22:56:55.536Z,6.90
2019-05-23T22:59:25.760Z,5.13
2019-05-23T23:02:01.438Z,4.63
2019-05-23T23:04:30.580Z,3.80
2019-05-23T23:06:59.789Z,4.40
2019-05-23T23:09:35.066Z,4.87
2019-05-23T23:12:04.290Z,7.37
2019-05-23T23:14:42.590Z,5.00
2019-05-23T23:17:11.826Z,4.00
2019-05-23T23:19:41.250Z,5.13
2019-05-23T23:22:55.421Z,8.60
2019-05-23T23:25:24.674Z,6.17
2019-05-23T23:28:00.255Z,6.43
2019-05-23T23:30:32.521Z,3.50
2019-05-23T23:33:15.393Z,6.17
2019-05-23T23:35:50.857Z,3.90
2019-05-23T23:38:26.890Z,5.67
2019-05-23T23:40:56.118Z,7.27
2019-05-23T23:43:25.354Z,7.60
2019-05-23T23:46:18.607Z,10.03
2019-05-23T23:49:05.653Z,7.53
2019-05-23T23:51:58.733Z,8.03
2019-05-23T23:54:52.862Z,5.97
2019-05-23T23:57:47.162Z,7.67
